createdAt,value
2018-07-16T13:44:29.684Z,27.30
2018-07-16T13:47:04.989Z,26.50
2018-07-16T13:49:38.101Z,25.60
2018-07-16T13:52:09.924Z,25.60
2018-07-16T13:54:40.382Z,25.60
2018-07-16T13:57:10.699Z,25.90
2018-07-16T13:59:40.978Z,26.00
2018-07-16T14:02:12.607Z,25.50
2018-07-16T14:07:11.912Z,25.70
2018-07-16T14:09:42.713Z,24.90
2018-07-16T14:12:18.311Z,24.60
2018-07-16T14:14:48.471Z,25.00
2018-07-16T14:17:21.253Z,25.10
2018-07-16T14:19:51.188Z,25.40
2018-07-16T14:22:21.659Z,26.60
2018-07-16T14:24:51.664Z,26.80
2018-07-16T14:27:23.089Z,26.40
2018-07-16T14:29:52.973Z,26.70
2018-07-16T14:32:23.586Z,26.50
2018-07-16T14:34:53.958Z,26.50
2018-07-16T14:37:24.157Z,26.50
2018-07-16T14:39:54.232Z,26.20
2018-07-16T14:42:24.499Z,26.50
2018-07-16T14:44:56.020Z,26.00
2018-07-16T14:47:25.890Z,25.60
2018-07-16T14:49:56.125Z,25.00
2018-07-16T14:52:26.437Z,25.30
2018-07-16T14:54:56.182Z,25.60
2018-07-16T14:57:26.555Z,25.60
2018-07-16T14:59:56.463Z,25.20
2018-07-16T15:02:27.818Z,25.80
2018-07-16T15:04:57.623Z,26.80
2018-07-16T15:07:28.022Z,26.90
2018-07-16T15:09:59.494Z,27.40
2018-07-16T15:12:29.923Z,27.20
2018-07-16T15:14:59.687Z,27.20
2018-07-16T15:17:29.609Z,27.00
2018-07-16T15:19:59.850Z,27.00
2018-07-16T15:22:30.352Z,27.10
2018-07-16T15:25:02.697Z,27.00
2018-07-16T15:27:44.010Z,26.10
2018-07-16T15:30:14.162Z,26.00
2018-07-16T15:32:48.214Z,26.60
2018-07-16T15:35:19.280Z,26.00
2018-07-16T15:37:49.606Z,26.40
2018-07-16T15:40:19.882Z,26.40
2018-07-16T15:42:53.116Z,26.00
2018-07-16T15:45:23.378Z,25.70
2018-07-16T15:47:54.249Z,25.60
2018-07-16T15:50:26.042Z,25.70
2018-07-16T15:52:58.395Z,25.70
2018-07-16T15:55:30.007Z,25.10
2018-07-16T15:57:59.832Z,25.90
2018-07-16T16:00:29.804Z,25.40
2018-07-16T16:03:00.337Z,25.20
2018-07-16T16:05:31.229Z,25.70
2018-07-16T16:08:01.282Z,25.50
2018-07-16T16:10:31.902Z,25.20
2018-07-16T16:13:02.610Z,25.50
2018-07-16T16:15:33.290Z,25.90
2018-07-16T16:18:03.552Z,26.00
2018-07-16T16:20:34.453Z,26.00
2018-07-16T16:23:04.393Z,26.00
2018-07-16T16:25:34.591Z,26.10
2018-07-16T16:28:07.174Z,26.20
2018-07-16T16:30:38.104Z,26.40
2018-07-16T16:33:08.345Z,26.60
2018-07-16T16:35:38.165Z,26.50
2018-07-16T16:38:09.318Z,26.40
2018-07-16T16:40:39.876Z,26.70
2018-07-16T16:43:10.384Z,26.90
2018-07-16T16:45:40.602Z,26.80
2018-07-16T16:48:11.038Z,26.70
2018-07-16T16:50:41.758Z,26.80
2018-07-16T16:53:14.890Z,26.80
2018-07-16T16:55:45.686Z,26.30
2018-07-16T16:58:17.337Z,26.70
2018-07-16T17:00:48.156Z,26.50
2018-07-16T17:03:19.469Z,25.90
2018-07-16T17:05:51.706Z,26.10
2018-07-16T17:08:22.827Z,26.80
2018-07-16T17:10:53.126Z,26.80
2018-07-16T17:13:23.553Z,26.60
2018-07-16T17:15:53.579Z,26.60
2018-07-16T17:18:23.684Z,26.50
2018-07-16T17:20:53.940Z,26.40
2018-07-16T17:23:25.594Z,26.70
2018-07-16T17:25:56.007Z,26.70
2018-07-16T17:28:25.885Z,26.30
2018-07-16T17:30:56.157Z,26.90
2018-07-16T17:33:26.159Z,26.30
2018-07-16T17:35:57.559Z,26.70
2018-07-16T17:38:27.526Z,26.50
2018-07-16T17:40:58.385Z,26.50
2018-07-16T17:43:30.359Z,26.40
2018-07-16T17:46:01.598Z,26.70
2018-07-16T17:48:32.974Z,26.80
2018-07-16T17:51:03.353Z,26.90
2018-07-16T17:53:34.867Z,26.80
2018-07-16T17:56:05.828Z,26.80
2018-07-16T17:58:43.237Z,26.80
2018-07-16T18:01:13.958Z,27.20
2018-07-16T18:03:44.156Z,27.20
2018-07-16T18:06:14.605Z,26.30
2018-07-16T18:08:46.957Z,26.30
2018-07-16T18:11:16.998Z,26.20
2018-07-16T18:13:49.990Z,25.90
2018-07-16T18:16:20.672Z,25.50
2018-07-16T18:18:50.691Z,26.30
2018-07-16T18:21:21.636Z,26.40
2018-07-16T18:23:52.861Z,27.20
2018-07-16T18:26:22.954Z,26.40
2018-07-16T18:28:56.005Z,26.80
2018-07-16T18:31:31.817Z,27.00
2018-07-16T18:34:02.839Z,27.30
2018-07-16T18:36:36.396Z,28.20
2018-07-16T18:39:09.958Z,27.70
2018-07-16T18:41:40.000Z,27.70
2018-07-16T18:44:10.387Z,28.00
2018-07-16T18:46:42.730Z,28.20
2018-07-16T18:49:13.014Z,28.50
2018-07-16T18:51:47.098Z,29.00
2018-07-16T18:54:17.942Z,29.20
2018-07-16T18:56:51.884Z,29.60
2018-07-16T18:59:30.307Z,29.90
2018-07-16T19:02:02.575Z,30.30
2018-07-16T19:04:33.058Z,30.80
2018-07-16T19:07:04.143Z,31.40
2018-07-16T19:09:35.824Z,31.80
2018-07-16T19:12:06.398Z,32.30
2018-07-16T19:14:38.352Z,32.80
2018-07-16T19:17:13.280Z,33.10
2018-07-16T19:19:43.652Z,33.20
2018-07-16T19:22:15.195Z,33.40
2018-07-16T19:24:51.863Z,33.60
2018-07-16T19:27:32.486Z,33.70
2018-07-16T19:30:04.867Z,33.90
2018-07-16T19:32:36.546Z,34.30
2018-07-16T19:35:06.772Z,34.50
2018-07-16T19:37:37.404Z,35.00
2018-07-16T19:40:08.449Z,35.30
2018-07-16T19:42:39.383Z,35.50
2018-07-16T19:45:10.011Z,35.90
2018-07-16T19:47:40.950Z,36.10
2018-07-16T19:50:12.690Z,36.30
2018-07-16T19:52:44.176Z,36.70
2018-07-16T19:55:14.863Z,37.20
2018-07-16T19:57:44.528Z,36.40
2018-07-16T20:00:19.150Z,37.70
2018-07-16T20:02:51.075Z,37.80
2018-07-16T20:05:21.748Z,38.10
2018-07-16T20:07:53.658Z,38.40
2018-07-16T20:10:23.712Z,38.30
2018-07-16T20:12:58.553Z,38.30
2018-07-16T20:15:32.624Z,38.90
2018-07-16T20:18:04.015Z,39.00
2018-07-16T20:20:38.990Z,39.30
2018-07-16T20:23:09.831Z,39.40
2018-07-16T20:25:41.265Z,39.50
2018-07-16T20:28:11.031Z,39.80
2018-07-16T20:30:41.463Z,39.90
2018-07-16T20:33:12.674Z,39.90
2018-07-16T20:35:44.140Z,40.40
2018-07-16T20:38:15.611Z,40.90
2018-07-16T20:40:45.915Z,39.80
2018-07-16T20:43:17.009Z,40.30
2018-07-16T20:45:48.659Z,40.40
2018-07-16T20:48:20.614Z,40.70
2018-07-16T20:50:52.536Z,40.60
2018-07-16T20:53:23.623Z,40.20
2018-07-16T20:55:53.533Z,40.80
2018-07-16T20:58:24.272Z,40.80
2018-07-16T21:00:54.561Z,40.90
2018-07-16T21:03:24.332Z,41.00
2018-07-16T21:05:58.095Z,39.60
2018-07-16T21:08:27.919Z,40.50
2018-07-16T21:10:59.411Z,41.00
2018-07-16T21:13:37.214Z,41.50
2018-07-16T21:16:08.009Z,41.50
2018-07-16T21:18:38.941Z,41.60
2018-07-16T21:21:10.745Z,41.80
2018-07-16T21:23:42.115Z,41.90
2018-07-16T21:26:13.602Z,42.00
2018-07-16T21:28:43.517Z,42.20
2018-07-16T21:31:18.498Z,42.50
2018-07-16T21:33:51.713Z,42.60
2018-07-16T21:36:21.873Z,42.60
2018-07-16T21:38:54.738Z,42.70
2018-07-16T21:41:25.049Z,42.70
2018-07-16T21:43:56.057Z,42.80
2018-07-16T21:46:27.522Z,43.20
2018-07-16T21:49:00.107Z,43.40
2018-07-16T21:51:31.935Z,43.50
2018-07-16T21:54:02.695Z,43.40
2018-07-16T21:56:33.582Z,43.50
2018-07-16T21:59:05.128Z,43.70
2018-07-16T22:01:35.398Z,43.60
2018-07-16T22:04:06.142Z,43.80
2018-07-16T22:06:39.088Z,43.50
2018-07-16T22:09:10.156Z,43.20
2018-07-16T22:11:40.944Z,43.70
2018-07-16T22:14:12.264Z,43.70
2018-07-16T22:16:44.659Z,43.70
2018-07-16T22:19:15.876Z,43.80
2018-07-16T22:21:46.852Z,44.20
2018-07-16T22:24:18.053Z,44.30
2018-07-16T22:26:50.217Z,44.30
2018-07-16T22:29:21.673Z,44.30
2018-07-16T22:31:55.689Z,44.30
2018-07-16T22:34:28.475Z,44.50
2018-07-16T22:37:08.548Z,44.70
2018-07-16T22:39:38.571Z,44.60
2018-07-16T22:42:08.690Z,44.80
2018-07-16T22:44:40.463Z,45.20
2018-07-16T22:47:11.331Z,44.90
2018-07-16T22:49:42.118Z,44.70
2018-07-16T22:52:12.054Z,44.80
2018-07-16T22:54:41.914Z,44.70
2018-07-16T22:57:13.061Z,45.00
2018-07-16T22:59:42.926Z,45.30
2018-07-16T23:02:12.749Z,45.30
2018-07-16T23:04:43.318Z,45.00
2018-07-16T23:07:13.063Z,45.10
2018-07-16T23:09:43.527Z,44.90
2018-07-16T23:12:13.778Z,44.90
2018-07-16T23:14:43.890Z,44.80
2018-07-16T23:17:13.840Z,45.00
2018-07-16T23:19:50.636Z,45.20
2018-07-16T23:22:20.632Z,45.70
2018-07-16T23:24:53.387Z,44.90
2018-07-16T23:27:23.101Z,45.90
2018-07-16T23:29:53.482Z,45.20
2018-07-16T23:32:23.243Z,45.00
2018-07-16T23:34:52.946Z,45.00
2018-07-16T23:37:22.801Z,45.00
2018-07-16T23:39:52.869Z,45.10
2018-07-16T23:42:23.025Z,45.00
2018-07-16T23:44:52.937Z,45.20
2018-07-16T23:47:23.514Z,45.40
2018-07-16T23:49:53.378Z,45.60
2018-07-16T23:52:23.375Z,45.60
2018-07-16T23:54:53.958Z,45.80
2018-07-16T23:57:24.835Z,45.80
2018-07-16T23:59:55.537Z,45.70
